KAWO/AWO METAR and TAF weather

Enter ICAO airport designator
Station Type Date Time Source
KAWO METAR 2018/07/21 12:56 UTC NOAA

KAWO 211256Z AUTO 00000KT 8SM CLR 08/08 A3014 RMK AO2 SLP210 T00830078


Station Type Date Time Source
KAWO Decoded METAR 2018/07/21 12:56 UTC NOAA

Arlington Municipal, WA, United States (KAWO) 48-10N 122-10W
Jul 21, 2018 - 08:56 AM EDT / 2018.07.21 1256 UTC
Wind: Calm:0
Visibility: 8 mile(s):0
Sky conditions: clear
Temperature: 46.9 F (8.3 C)
Dew Point: 46.0 F (7.8 C)
Relative Humidity: 96%
Pressure (altimeter): 30.14 in. Hg (1020 hPa)
ob: KAWO 211256Z AUTO 00000KT 8SM CLR 08/08 A3014 RMK AO2 SLP210 T00830078
cycle: 13

Station Type Date Time Source
KAWO TAF UTC NOAA

Error!


Example: see airport list